createdAt,value
2018-02-25T00:09:12.204Z,44.80
2018-02-25T00:19:13.893Z,44.80
2018-02-25T00:29:16.742Z,45.30
2018-02-25T00:39:20.099Z,44.60
2018-02-25T00:49:21.658Z,44.60
2018-02-25T00:59:23.490Z,44.00
2018-02-25T01:09:26.827Z,44.80
2018-02-25T01:19:29.228Z,44.80
2018-02-25T01:29:30.808Z,44.80
2018-02-25T01:39:32.397Z,44.70
2018-02-25T01:49:33.943Z,45.20
2018-02-25T01:59:35.517Z,45.80
2018-02-25T02:09:37.106Z,47.40
2018-02-25T02:19:38.653Z,47.60
2018-02-25T02:29:40.944Z,48.30
2018-02-25T02:39:42.460Z,48.30
2018-02-25T02:49:44.081Z,48.70
2018-02-25T02:59:45.643Z,49.20
2018-02-25T03:09:47.212Z,48.40
2018-02-25T03:19:48.762Z,48.70
2018-02-25T03:29:51.298Z,49.30
2018-02-25T03:39:53.553Z,49.50
2018-02-25T03:49:55.173Z,49.50
2018-02-25T04:00:03.798Z,51.20
2018-02-25T04:10:05.388Z,50.60
2018-02-25T04:20:06.932Z,50.60
2018-02-25T04:30:08.591Z,52.80
2018-02-25T04:40:10.171Z,53.40
2018-02-25T04:50:12.446Z,53.00
2018-02-25T05:00:13.954Z,52.90
2018-02-25T05:10:15.527Z,52.70
2018-02-25T05:20:17.157Z,53.00
2018-02-25T05:30:18.686Z,53.10
2018-02-25T05:40:20.947Z,52.90
2018-02-25T05:50:29.570Z,52.90
2018-02-25T06:00:31.946Z,52.70
2018-02-25T06:10:33.430Z,52.70
2018-02-25T06:20:34.978Z,52.80
2018-02-25T06:30:37.326Z,52.10
2018-02-25T06:40:38.876Z,52.00
2018-02-25T06:50:40.492Z,53.30
2018-02-25T07:00:42.171Z,52.00
2018-02-25T07:10:43.909Z,51.30
2018-02-25T07:20:46.260Z,45.60
2018-02-25T07:30:47.902Z,45.50
2018-02-25T07:40:49.609Z,46.00
2018-02-25T07:50:51.149Z,45.60
2018-02-25T08:00:53.052Z,44.80
2018-02-25T08:10:54.617Z,44.10
2018-02-25T08:20:56.174Z,43.60
2018-02-25T08:30:57.775Z,42.20
2018-02-25T08:40:59.515Z,42.20
2018-02-25T08:51:00.992Z,41.20
2018-02-25T09:01:02.539Z,40.60
2018-02-25T09:11:05.014Z,40.80
2018-02-25T09:21:06.647Z,40.70
2018-02-25T09:31:08.147Z,37.00
2018-02-25T09:41:10.406Z,39.10
2018-02-25T09:51:11.908Z,39.00
2018-02-25T10:01:14.556Z,38.80
2018-02-25T10:11:16.325Z,38.70
2018-02-25T10:21:17.958Z,38.10
2018-02-25T10:31:19.956Z,37.00
2018-02-25T10:41:21.523Z,35.20
2018-02-25T10:51:23.794Z,35.50
2018-02-25T11:01:25.425Z,35.40
2018-02-25T11:11:29.787Z,35.80
2018-02-25T11:21:32.206Z,35.40
2018-02-25T11:31:33.958Z,34.50
2018-02-25T11:41:36.164Z,33.30
2018-02-25T11:51:39.277Z,33.10
2018-02-25T12:01:42.480Z,31.20
2018-02-25T12:11:44.272Z,31.20
2018-02-25T12:21:46.085Z,28.80
2018-02-25T12:31:47.695Z,29.80
2018-02-25T12:41:49.687Z,29.90
2018-02-25T12:51:51.272Z,28.30
2018-02-25T13:01:53.532Z,27.70
2018-02-25T13:11:56.119Z,28.60
2018-02-25T13:21:57.737Z,27.20
2018-02-25T13:31:59.297Z,27.90
2018-02-25T13:42:00.878Z,27.70
2018-02-25T13:52:03.258Z,25.60
2018-02-25T14:02:05.895Z,25.60
2018-02-25T14:12:08.499Z,26.50
2018-02-25T14:22:11.018Z,25.80
2018-02-25T14:32:13.093Z,25.80
2018-02-25T14:42:15.480Z,26.80
2018-02-25T14:52:16.952Z,26.80
2018-02-25T15:02:18.451Z,26.20
2018-02-25T15:12:20.173Z,26.70
2018-02-25T15:22:21.664Z,27.00
2018-02-25T15:32:23.768Z,26.00
2018-02-25T15:42:26.222Z,26.60
2018-02-25T15:52:27.776Z,27.20
2018-02-25T16:02:29.457Z,27.70
2018-02-25T16:12:30.928Z,28.80
2018-02-25T16:22:33.121Z,30.00
2018-02-25T16:32:34.712Z,30.00
2018-02-25T16:42:36.414Z,30.90
2018-02-25T16:52:38.191Z,30.30
2018-02-25T17:02:39.690Z,30.60
2018-02-25T17:12:41.261Z,30.70
2018-02-25T17:22:43.491Z,32.40
2018-02-25T17:32:45.094Z,32.30
2018-02-25T17:42:46.552Z,31.50
2018-02-25T17:52:48.014Z,33.00
2018-02-25T18:02:50.668Z,32.50
2018-02-25T18:12:52.238Z,31.80
2018-02-25T18:22:53.753Z,32.30
2018-02-25T18:32:55.333Z,32.70
2018-02-25T18:42:56.915Z,31.70
2018-02-25T18:52:58.540Z,32.00
2018-02-25T19:03:00.030Z,33.40
2018-02-25T19:13:01.561Z,31.30
2018-02-25T19:23:03.025Z,32.30
2018-02-25T19:33:04.676Z,33.00
2018-02-25T19:43:06.174Z,33.30
2018-02-25T19:53:07.670Z,33.50
2018-02-25T20:03:09.353Z,34.50
2018-02-25T20:13:10.868Z,34.60
2018-02-25T20:23:12.562Z,36.10
2018-02-25T20:33:14.183Z,35.70
2018-02-25T20:43:15.756Z,36.80
2018-02-25T20:53:17.289Z,37.20
2018-02-25T21:03:18.827Z,36.60
2018-02-25T21:13:20.593Z,37.00
2018-02-25T21:23:22.297Z,36.30
2018-02-25T21:33:23.885Z,36.90
2018-02-25T21:43:25.423Z,37.60
2018-02-25T21:53:33.722Z,39.60
2018-02-25T22:03:36.125Z,39.50
2018-02-25T22:13:37.950Z,39.10
2018-02-25T22:23:39.673Z,40.40
2018-02-25T22:33:41.265Z,41.60
2018-02-25T22:43:42.897Z,40.70
2018-02-25T22:53:45.230Z,42.90
2018-02-25T23:03:47.701Z,43.10
2018-02-25T23:13:49.272Z,43.00
2018-02-25T23:23:50.876Z,44.50
2018-02-25T23:33:52.499Z,43.40
2018-02-25T23:43:54.135Z,44.50
2018-02-25T23:53:56.118Z,46.30
